Time;durP1;ratioP1;P1;durP2;ratioP2;P2;SDS_P1;SDS_P2;PMS_P1;PMS_P2;Temp;Humidity;BMP_temperature;BMP_pressure;BME280_temperature;BME280_humidity;BME280_pressure;Samples;Min_cycle;Max_cycle;Signal;HPM_P1;HPM_P2
2022/06/11 00:01:20;;;;;;;11.07;6.50;;;17.40;99.90;;;;;;5036964;28;20480;-86
2022/06/11 00:03:48;;;;;;;8.47;7.60;;;17.30;99.90;;;;;;5029923;28;20453;-87
2022/06/11 00:06:15;;;;;;;8.87;8.07;;;17.30;99.90;;;;;;5034847;28;20438;-88
2022/06/11 00:08:43;;;;;;;10.27;7.20;;;17.30;99.90;;;;;;5016190;28;20828;-87
2022/06/11 00:11:10;;;;;;;8.20;7.40;;;17.20;99.90;;;;;;5014602;28;20457;-88
2022/06/11 00:13:39;;;;;;;7.63;6.67;;;17.20;99.90;;;;;;5014692;28;20457;-87
2022/06/11 00:16:07;;;;;;;8.00;7.20;;;17.20;99.90;;;;;;5014879;28;20442;-88
2022/06/11 00:18:36;;;;;;;11.13;8.83;;;17.20;99.90;;;;;;5014222;28;20448;-88
2022/06/11 00:21:02;;;;;;;10.80;7.40;;;17.20;99.90;;;;;;5025395;28;20485;-87
2022/06/11 00:23:29;;;;;;;9.07;8.10;;;17.10;99.90;;;;;;5037473;28;20430;-87
2022/06/11 00:25:58;;;;;;;7.60;6.90;;;17.10;99.90;;;;;;5036782;28;20444;-87
2022/06/11 00:28:25;;;;;;;6.87;6.17;;;17.10;99.90;;;;;;5037754;28;20508;-87
2022/06/11 00:30:51;;;;;;;9.70;8.17;;;16.90;99.90;;;;;;5034037;28;20446;-88
2022/06/11 00:33:18;;;;;;;8.73;6.10;;;17.00;99.90;;;;;;5023953;28;20446;-88
2022/06/11 00:35:45;;;;;;;6.90;6.20;;;16.90;99.90;;;;;;5019401;28;20437;-88
2022/06/11 00:38:12;;;;;;;8.47;6.97;;;16.90;99.90;;;;;;5036080;28;20512;-88
2022/06/11 00:40:42;;;;;;;6.40;5.50;;;16.80;99.90;;;;;;5034973;28;20482;-88
2022/06/11 00:43:13;;;;;;;8.57;6.93;;;16.80;99.90;;;;;;5033326;28;20481;-88
2022/06/11 00:45:45;;;;;;;7.23;6.53;;;16.80;99.90;;;;;;5018078;28;20450;-87
2022/06/11 00:48:16;;;;;;;7.33;6.40;;;16.90;99.90;;;;;;5025785;28;20466;-87
2022/06/11 00:50:46;;;;;;;8.13;6.50;;;16.80;99.90;;;;;;5026255;28;20446;-88
2022/06/11 00:53:18;;;;;;;7.10;6.30;;;16.70;99.90;;;;;;5017275;28;20446;-87
2022/06/11 00:55:47;;;;;;;6.83;6.23;;;16.60;99.90;;;;;;5017747;28;20939;-88
2022/06/11 00:58:19;;;;;;;7.57;6.07;;;16.60;99.90;;;;;;5016415;28;20494;-88
2022/06/11 01:00:50;;;;;;;6.40;5.90;;;16.60;99.90;;;;;;5016936;28;20497;-88
2022/06/11 01:03:20;;;;;;;8.80;6.73;;;16.70;99.90;;;;;;5016741;28;20453;-88
2022/06/11 01:05:50;;;;;;;10.30;6.83;;;16.70;99.90;;;;;;5017462;28;20454;-88
2022/06/11 01:08:37;;;;;;;8.20;6.57;;;16.70;99.90;;;;;;5036882;28;20464;-88
2022/06/11 01:11:39;;;;;;;7.93;6.70;;;16.70;99.90;;;;;;5028008;28;20438;-88
2022/06/11 01:14:19;;;;;;;9.63;7.00;;;16.70;99.90;;;;;;5017144;28;20429;-88
2022/06/11 01:16:55;;;;;;;7.60;6.70;;;16.70;99.90;;;;;;5015696;28;21005;-88
2022/06/11 01:19:52;;;;;;;8.47;6.57;;;16.60;99.90;;;;;;5015591;28;20450;-88
2022/06/11 01:22:40;;;;;;;6.67;5.87;;;16.60;99.90;;;;;;5015232;28;20442;-88
2022/06/11 01:25:11;;;;;;;9.80;7.30;;;16.60;99.90;;;;;;5015356;28;20445;-88
2022/06/11 01:28:00;;;;;;;7.43;6.60;;;16.60;99.90;;;;;;5014606;28;21005;-87
2022/06/11 01:30:30;;;;;;;10.20;8.03;;;16.50;99.90;;;;;;5014867;28;20437;-88
2022/06/11 01:33:07;;;;;;;7.73;7.03;;;16.50;99.90;;;;;;5014897;28;20449;-88
2022/06/11 01:35:42;;;;;;;7.20;6.60;;;16.50;99.90;;;;;;5028881;28;20434;-87
2022/06/11 01:38:18;;;;;;;11.23;6.80;;;16.40;99.90;;;;;;5039369;28;20454;-87
2022/06/11 01:40:49;;;;;;;8.47;6.47;;;16.40;99.90;;;;;;5015539;28;20492;-88
2022/06/11 01:43:21;;;;;;;10.20;7.50;;;16.30;99.90;;;;;;5014755;28;20834;-88
2022/06/11 01:45:51;;;;;;;8.43;6.50;;;16.30;99.90;;;;;;5014472;28;20446;-88
2022/06/11 01:48:20;;;;;;;9.53;7.83;;;16.20;99.90;;;;;;5014050;28;21060;-88
2022/06/11 01:50:53;;;;;;;7.50;6.80;;;16.10;99.90;;;;;;5014493;28;20453;-88
2022/06/11 01:53:43;;;;;;;7.80;7.00;;;16.10;99.90;;;;;;5014751;28;20831;-88
2022/06/11 01:56:28;;;;;;;12.07;8.40;;;16.10;99.90;;;;;;5017077;28;20442;-88
2022/06/11 01:59:16;;;;;;;7.33;6.57;;;16.00;99.90;;;;;;5022826;28;20442;-88
2022/06/11 02:02:00;;;;;;;8.00;7.13;;;16.00;99.90;;;;;;5016618;28;20482;-88
2022/06/11 02:04:37;;;;;;;8.10;7.10;;;15.90;99.90;;;;;;5014386;28;20461;-88
2022/06/11 02:07:12;;;;;;;8.33;6.50;;;15.90;99.90;;;;;;5014462;28;20493;-88
2022/06/11 02:09:46;;;;;;;7.57;6.77;;;15.90;99.90;;;;;;5016844;28;20449;-87
2022/06/11 02:12:20;;;;;;;8.03;6.33;;;15.80;99.90;;;;;;5023003;28;20442;-88
2022/06/11 02:14:53;;;;;;;8.23;7.30;;;15.80;99.90;;;;;;5029507;28;20434;-88
2022/06/11 02:17:25;;;;;;;9.00;6.37;;;15.80;99.90;;;;;;5038112;28;20458;-87
2022/06/11 02:19:56;;;;;;;7.83;6.97;;;15.80;99.90;;;;;;5034693;28;20454;-88
2022/06/11 02:22:26;;;;;;;8.37;6.80;;;15.80;99.90;;;;;;5031878;28;20481;-87
2022/06/11 02:24:57;;;;;;;7.93;7.20;;;15.80;99.90;;;;;;5039804;28;20425;-87
2022/06/11 02:27:28;;;;;;;8.67;7.50;;;15.80;99.90;;;;;;5039385;28;20449;-87
2022/06/11 02:29:56;;;;;;;7.30;6.60;;;15.70;99.90;;;;;;5029361;28;20446;-88
2022/06/11 02:32:28;;;;;;;7.23;6.60;;;15.70;99.90;;;;;;5034352;28;20442;-87
2022/06/11 02:34:58;;;;;;;7.57;6.87;;;15.70;99.90;;;;;;5034006;28;20454;-87
2022/06/11 02:37:28;;;;;;;11.83;7.40;;;15.70;99.90;;;;;;5026107;28;20466;-87
2022/06/11 02:40:00;;;;;;;7.70;6.90;;;15.60;99.90;;;;;;5015371;28;20450;-88
2022/06/11 02:42:27;;;;;;;7.33;6.60;;;15.60;99.90;;;;;;5014487;28;20485;-87
2022/06/11 02:44:54;;;;;;;6.60;6.00;;;15.60;99.90;;;;;;5015636;28;20453;-88
2022/06/11 02:47:21;;;;;;;7.30;6.70;;;15.50;99.90;;;;;;5024557;28;20587;-88
2022/06/11 02:49:51;;;;;;;7.20;6.50;;;15.50;99.90;;;;;;5037462;28;20450;-87
2022/06/11 02:52:21;;;;;;;8.77;7.90;;;15.50;99.90;;;;;;5031415;28;21006;-87
2022/06/11 02:54:49;;;;;;;10.13;7.43;;;15.50;99.90;;;;;;5014960;28;20517;-87
2022/06/11 02:57:21;;;;;;;8.17;7.23;;;15.40;99.90;;;;;;5013587;28;20482;-88
2022/06/11 02:59:50;;;;;;;7.67;7.00;;;15.40;99.90;;;;;;5013470;28;20484;-87
2022/06/11 03:02:17;;;;;;;8.20;6.57;;;15.30;99.90;;;;;;5013350;28;20482;-87
2022/06/11 03:04:44;;;;;;;7.07;6.37;;;15.30;99.90;;;;;;5013518;28;20450;-87
2022/06/11 03:07:13;;;;;;;7.20;6.50;;;15.30;99.90;;;;;;5012896;28;20470;-88
2022/06/11 03:09:40;;;;;;;7.03;6.30;;;15.30;99.90;;;;;;5012552;28;20450;-88
2022/06/11 03:12:10;;;;;;;6.93;6.13;;;15.30;99.90;;;;;;5012755;28;20446;-87
2022/06/11 03:14:37;;;;;;;6.80;5.90;;;15.30;99.90;;;;;;5012734;28;20449;-88
2022/06/11 03:17:05;;;;;;;9.90;6.67;;;15.30;99.90;;;;;;5012683;28;20474;-88
2022/06/11 03:19:32;;;;;;;8.67;6.93;;;15.30;99.90;;;;;;5012927;28;20457;-87
2022/06/11 03:21:59;;;;;;;8.00;6.87;;;15.20;99.90;;;;;;5012952;28;20481;-87
2022/06/11 03:24:28;;;;;;;7.50;6.70;;;15.20;99.90;;;;;;5014136;28;20466;-87
2022/06/11 03:26:56;;;;;;;7.17;6.40;;;15.30;99.90;;;;;;5013260;28;20986;-87
2022/06/11 03:29:24;;;;;;;8.30;6.80;;;15.30;99.90;;;;;;5012443;28;20441;-87
2022/06/11 03:31:52;;;;;;;7.70;6.60;;;15.30;99.90;;;;;;5012556;28;20453;-87
2022/06/11 03:34:19;;;;;;;9.00;6.70;;;15.30;99.90;;;;;;5012795;28;20487;-87
2022/06/11 03:36:46;;;;;;;8.67;6.93;;;15.20;99.90;;;;;;5013631;28;20473;-87
2022/06/11 03:39:15;;;;;;;6.87;6.10;;;15.20;99.90;;;;;;5030668;28;20609;-87
2022/06/11 03:41:44;;;;;;;11.13;6.60;;;15.20;99.90;;;;;;5036431;28;20485;-87
2022/06/11 03:44:11;;;;;;;7.73;6.43;;;15.30;99.90;;;;;;5012606;28;20449;-87
2022/06/11 03:46:38;;;;;;;8.60;5.97;;;15.20;99.90;;;;;;5012624;28;20477;-87
2022/06/11 03:49:05;;;;;;;9.47;6.80;;;15.20;99.90;;;;;;5012297;28;20457;-88
2022/06/11 03:51:32;;;;;;;7.77;7.07;;;15.20;99.90;;;;;;5012626;28;20968;-88
2022/06/11 03:53:59;;;;;;;7.73;6.93;;;15.20;99.90;;;;;;5013171;28;20446;-87
2022/06/11 03:56:26;;;;;;;7.60;5.70;;;15.20;99.90;;;;;;5022361;28;20465;-88
2022/06/11 03:58:54;;;;;;;8.03;6.80;;;15.20;99.90;;;;;;5026278;28;20445;-88
2022/06/11 04:01:23;;;;;;;9.17;6.40;;;15.20;99.90;;;;;;5030581;28;20474;-88
2022/06/11 04:03:52;;;;;;;7.90;6.53;;;15.20;99.90;;;;;;5036082;28;20964;-88
2022/06/11 04:06:21;;;;;;;6.53;5.80;;;15.10;99.90;;;;;;5036212;28;20458;-88
2022/06/11 04:08:48;;;;;;;7.20;5.70;;;15.10;99.90;;;;;;5015384;28;20929;-88
2022/06/11 04:11:15;;;;;;;5.70;5.23;;;15.10;99.90;;;;;;5012822;28;20520;-88
2022/06/11 04:13:43;;;;;;;7.50;6.40;;;15.10;99.90;;;;;;5013456;28;20449;-88
2022/06/11 04:16:22;;;;;;;7.90;6.37;;;15.20;99.90;;;;;;5014162;28;20947;-88
2022/06/11 04:18:49;;;;;;;13.80;6.97;;;15.20;99.90;;;;;;5021546;28;20449;-88
2022/06/11 04:21:16;;;;;;;17.47;7.67;;;15.20;99.90;;;;;;5036251;28;20493;-88
2022/06/11 04:23:47;;;;;;;8.43;7.63;;;15.20;99.90;;;;;;5015754;28;20536;-87
2022/06/11 04:26:18;;;;;;;9.33;6.67;;;15.20;99.90;;;;;;5012186;28;20442;-88
2022/06/11 04:28:45;;;;;;;8.50;5.83;;;15.20;99.90;;;;;;5020995;28;20449;-87
2022/06/11 04:31:15;;;;;;;9.70;6.70;;;15.20;99.90;;;;;;5020709;28;20441;-88
2022/06/11 04:33:44;;;;;;;12.90;7.37;;;15.30;99.90;;;;;;5016095;28;20457;-88
2022/06/11 04:36:11;;;;;;;8.23;7.53;;;15.40;99.90;;;;;;5016197;28;20532;-88
2022/06/11 04:38:39;;;;;;;6.73;6.13;;;15.40;99.90;;;;;;5040175;28;20454;-88
2022/06/11 04:41:08;;;;;;;11.23;6.63;;;15.40;99.90;;;;;;5041521;28;20441;-87
2022/06/11 04:43:35;;;;;;;7.40;5.63;;;15.50;99.90;;;;;;5039697;28;20430;-88
2022/06/11 04:46:02;;;;;;;8.17;5.40;;;15.50;99.90;;;;;;5038104;28;20450;-88
2022/06/11 04:48:29;;;;;;;7.97;5.80;;;15.50;99.90;;;;;;5034355;28;20496;-88
2022/06/11 04:50:57;;;;;;;6.77;6.17;;;15.60;99.90;;;;;;5027903;28;20448;-88
2022/06/11 04:53:24;;;;;;;6.13;5.20;;;15.60;99.90;;;;;;5036424;28;20438;-87
2022/06/11 04:55:51;;;;;;;7.33;5.77;;;15.60;99.90;;;;;;5039908;28;20433;-87
2022/06/11 04:58:18;;;;;;;6.00;5.50;;;15.70;99.90;;;;;;5040790;28;20514;-88
2022/06/11 05:00:45;;;;;;;6.43;5.60;;;15.70;99.90;;;;;;5041134;28;20529;-87
2022/06/11 05:03:12;;;;;;;7.10;5.73;;;15.70;99.90;;;;;;5036418;28;20473;-88
2022/06/11 05:05:39;;;;;;;7.57;6.80;;;15.80;99.90;;;;;;5024031;28;20926;-88
2022/06/11 05:08:07;;;;;;;7.13;5.77;;;15.90;99.90;;;;;;5020058;28;20474;-88
2022/06/11 05:10:35;;;;;;;7.33;5.63;;;15.90;99.90;;;;;;5021554;28;20453;-89
2022/06/11 05:13:02;;;;;;;7.43;6.60;;;15.90;99.90;;;;;;5023824;28;20822;-86
2022/06/11 05:15:29;;;;;;;6.10;5.50;;;15.90;99.90;;;;;;5040885;28;20434;-88
2022/06/11 05:17:56;;;;;;;6.87;6.17;;;16.00;99.90;;;;;;5031196;28;20460;-87
2022/06/11 05:20:23;;;;;;;7.87;5.33;;;16.20;99.90;;;;;;5018943;28;20442;-87
2022/06/11 05:22:50;;;;;;;6.93;6.33;;;16.80;99.90;;;;;;5017466;28;20494;-87
2022/06/11 05:25:20;;;;;;;5.70;5.10;;;17.40;99.90;;;;;;5019357;28;20444;-87
2022/06/11 05:27:48;;;;;;;5.77;4.80;;;18.10;99.90;;;;;;5026057;28;20460;-86
2022/06/11 05:30:19;;;;;;;6.73;5.63;;;18.60;99.90;;;;;;5021209;28;20473;-87
2022/06/11 05:32:47;;;;;;;6.40;5.07;;;19.10;99.30;;;;;;5018077;28;20448;-87
2022/06/11 05:35:16;;;;;;;5.80;5.23;;;19.50;98.00;;;;;;5016916;28;20457;-87
2022/06/11 05:37:43;;;;;;;6.53;5.30;;;19.80;96.70;;;;;;5014879;28;20476;-87
2022/06/11 05:40:12;;;;;;;6.50;4.93;;;20.20;95.70;;;;;;5014435;28;20449;-88
2022/06/11 05:42:41;;;;;;;7.07;4.97;;;20.60;94.80;;;;;;5014545;28;20478;-87
2022/06/11 05:45:09;;;;;;;6.10;5.20;;;21.30;93.20;;;;;;5014620;28;20444;-87
2022/06/11 05:47:36;;;;;;;4.33;4.03;;;21.70;91.60;;;;;;5022836;28;20458;-88
2022/06/11 05:50:06;;;;;;;5.97;5.13;;;22.10;90.30;;;;;;5038764;28;20431;-87
2022/06/11 05:52:39;;;;;;;7.40;4.43;;;22.30;89.60;;;;;;5032862;28;20458;-87
2022/06/11 05:55:07;;;;;;;5.97;5.43;;;22.50;87.30;;;;;;5015578;28;20456;-87
2022/06/11 05:57:34;;;;;;;8.80;4.57;;;22.90;85.80;;;;;;5013828;28;20508;-87
2022/06/11 06:00:11;;;;;;;6.10;4.83;;;23.10;84.30;;;;;;5014664;28;20464;-87
2022/06/11 06:02:40;;;;;;;8.73;5.03;;;23.50;82.90;;;;;;5014269;28;20482;-87
2022/06/11 06:05:08;;;;;;;6.00;5.00;;;23.90;81.50;;;;;;5014642;28;20512;-85
2022/06/11 06:07:35;;;;;;;5.70;5.10;;;24.40;80.00;;;;;;5014605;28;20520;-87
2022/06/11 06:10:02;;;;;;;5.67;4.50;;;24.50;78.50;;;;;;5014874;28;20493;-87
2022/06/11 06:12:31;;;;;;;4.17;3.77;;;24.70;76.30;;;;;;5031438;28;20453;-87
2022/06/11 06:15:04;;;;;;;5.27;4.57;;;25.00;75.30;;;;;;5032308;28;20455;-87
2022/06/11 06:17:31;;;;;;;6.20;4.90;;;25.20;73.50;;;;;;5014342;28;20507;-88
2022/06/11 06:19:57;;;;;;;4.50;4.10;;;25.30;72.30;;;;;;5014848;28;20473;-88
2022/06/11 06:22:24;;;;;;;4.37;3.93;;;25.60;71.70;;;;;;5015312;28;20478;-86
2022/06/11 06:24:51;;;;;;;4.40;4.00;;;25.80;70.50;;;;;;5015027;28;20449;-84
2022/06/11 06:27:17;;;;;;;7.47;4.13;;;26.20;68.90;;;;;;5014959;28;20462;-84
2022/06/11 06:29:44;;;;;;;6.50;4.33;;;26.20;67.20;;;;;;5014284;28;20449;-84
2022/06/11 06:32:12;;;;;;;8.73;4.63;;;26.70;67.00;;;;;;5013988;28;20452;-84
2022/06/11 06:34:39;;;;;;;4.83;3.60;;;26.90;64.90;;;;;;5014066;28;20954;-84
2022/06/11 06:37:06;;;;;;;5.13;4.70;;;26.80;64.70;;;;;;5017729;28;20496;-85
2022/06/11 06:39:32;;;;;;;4.00;3.70;;;27.40;63.60;;;;;;5028998;28;20453;-84
2022/06/11 06:41:59;;;;;;;4.50;4.10;;;27.80;61.90;;;;;;5026126;28;20967;-84
2022/06/11 06:44:27;;;;;;;4.67;4.27;;;28.30;60.20;;;;;;5013673;28;20450;-84
2022/06/11 06:46:53;;;;;;;5.17;4.10;;;28.30;58.70;;;;;;5019393;28;20894;-85
2022/06/11 06:49:22;;;;;;;5.57;3.97;;;28.60;58.50;;;;;;5026008;28;20446;-84
2022/06/11 06:51:48;;;;;;;5.80;4.60;;;28.80;57.80;;;;;;5022353;28;20452;-85
2022/06/11 06:54:15;;;;;;;4.10;3.60;;;29.00;57.40;;;;;;5013507;28;20947;-85
2022/06/11 06:56:44;;;;;;;6.03;3.77;;;29.30;56.60;;;;;;5013436;28;21006;-85
2022/06/11 06:59:12;;;;;;;4.53;3.60;;;29.40;56.80;;;;;;5013119;28;20874;-84
2022/06/11 07:01:39;;;;;;;4.00;3.43;;;29.50;56.50;;;;;;5013769;28;20443;-85
2022/06/11 07:04:06;;;;;;;4.33;3.90;;;29.50;55.20;;;;;;5013710;28;20971;-85
2022/06/11 07:06:35;;;;;;;8.30;3.63;;;29.80;56.00;;;;;;5013647;28;20474;-84
2022/06/11 07:09:02;;;;;;;3.57;3.27;;;29.60;55.20;;;;;;5013246;28;20833;-85
2022/06/11 07:11:29;;;;;;;5.50;3.70;;;29.60;55.50;;;;;;5013483;28;20458;-84
2022/06/11 07:13:56;;;;;;;5.00;3.23;;;30.10;54.80;;;;;;5014010;28;20446;-85
2022/06/11 07:16:30;;;;;;;4.10;3.70;;;30.40;54.70;;;;;;5033439;28;20438;-85
2022/06/11 07:19:00;;;;;;;7.37;4.43;;;30.70;53.80;;;;;;5032086;28;20501;-86
2022/06/11 07:21:29;;;;;;;4.00;3.60;;;30.70;53.60;;;;;;5020594;28;20450;-85
2022/06/11 07:24:01;;;;;;;3.80;2.97;;;30.80;53.30;;;;;;5028298;28;20488;-85
2022/06/11 07:26:31;;;;;;;4.07;3.47;;;31.30;52.70;;;;;;5034740;28;20500;-84
2022/06/11 07:29:02;;;;;;;3.60;3.20;;;31.20;52.40;;;;;;5033948;28;20442;-86
2022/06/11 07:31:30;;;;;;;4.97;3.10;;;31.50;51.90;;;;;;5014793;28;20448;-86
2022/06/11 07:33:57;;;;;;;4.13;3.00;;;31.90;50.90;;;;;;5015882;28;20889;-86
2022/06/11 07:36:24;;;;;;;4.70;3.60;;;32.20;50.40;;;;;;5037367;28;20456;-86
2022/06/11 07:38:51;;;;;;;7.43;3.80;;;32.80;49.60;;;;;;5031613;28;20449;-86
2022/06/11 07:41:19;;;;;;;3.60;3.30;;;33.10;48.80;;;;;;5015652;28;20450;-86
2022/06/11 07:43:46;;;;;;;3.60;2.93;;;33.30;48.10;;;;;;5014096;28;20489;-86
2022/06/11 07:46:13;;;;;;;3.57;3.23;;;33.40;46.90;;;;;;5012962;28;20955;-86
2022/06/11 07:48:40;;;;;;;4.07;2.97;;;33.00;47.90;;;;;;5012676;28;20458;-86
2022/06/11 07:51:08;;;;;;;3.87;2.80;;;33.40;46.70;;;;;;5012731;28;20442;-87
2022/06/11 07:53:35;;;;;;;3.70;3.23;;;33.40;45.90;;;;;;5012663;28;20453;-86
2022/06/11 07:56:01;;;;;;;5.67;3.20;;;33.80;45.60;;;;;;5012748;28;20442;-86
2022/06/11 07:58:32;;;;;;;3.80;2.90;;;34.10;45.30;;;;;;5012339;28;21060;-86
2022/06/11 08:00:58;;;;;;;3.77;3.37;;;34.60;44.20;;;;;;5013144;28;20442;-87
2022/06/11 08:03:27;;;;;;;4.67;2.97;;;35.00;43.40;;;;;;5013646;28;20856;-86
2022/06/11 08:05:55;;;;;;;4.20;3.47;;;34.90;43.40;;;;;;5036667;28;20493;-86
2022/06/11 08:08:22;;;;;;;5.70;3.20;;;34.90;42.40;;;;;;5033952;28;20461;-86
2022/06/11 08:10:49;;;;;;;4.37;2.93;;;35.40;42.20;;;;;;5016399;28;20446;-86
2022/06/11 08:13:16;;;;;;;4.83;3.70;;;36.00;41.30;;;;;;5016330;28;20876;-86
2022/06/11 08:15:47;;;;;;;5.03;2.87;;;36.40;40.70;;;;;;5016782;28;20456;-85
2022/06/11 08:18:14;;;;;;;3.30;3.10;;;36.90;40.00;;;;;;5016688;28;20466;-86
2022/06/11 08:20:41;;;;;;;4.77;2.50;;;37.30;38.70;;;;;;5016454;28;20476;-86
2022/06/11 08:23:09;;;;;;;4.73;3.97;;;36.90;38.30;;;;;;5016370;28;20485;-86
2022/06/11 08:25:37;;;;;;;3.57;3.00;;;36.80;38.30;;;;;;5016522;28;20457;-86
2022/06/11 08:28:04;;;;;;;4.50;3.20;;;36.80;38.00;;;;;;5016208;28;20482;-86
2022/06/11 08:30:33;;;;;;;4.30;3.77;;;36.80;38.00;;;;;;5016187;28;20458;-86
2022/06/11 08:33:01;;;;;;;4.13;2.77;;;36.30;37.90;;;;;;5018273;28;20446;-86
2022/06/11 08:35:30;;;;;;;3.47;3.07;;;36.50;38.40;;;;;;5018012;28;20989;-86
2022/06/11 08:37:57;;;;;;;4.70;3.03;;;37.00;37.40;;;;;;5029864;28;20469;-87
2022/06/11 08:40:29;;;;;;;3.03;2.53;;;37.90;36.40;;;;;;5039687;28;20446;-86
2022/06/11 08:43:00;;;;;;;4.83;2.50;;;37.70;35.50;;;;;;5039097;28;20465;-87
2022/06/11 08:45:36;;;;;;;2.90;2.23;;;38.60;34.50;;;;;;5034507;28;20454;-87
2022/06/11 08:48:13;;;;;;;2.83;2.17;;;38.80;33.00;;;;;;5019201;28;20501;-87
2022/06/11 08:50:46;;;;;;;4.70;2.90;;;39.00;32.90;;;;;;5018967;28;20453;-87
2022/06/11 08:53:14;;;;;;;3.00;2.37;;;39.50;32.60;;;;;;5020795;28;20477;-86
2022/06/11 08:55:41;;;;;;;4.07;2.80;;;39.60;32.30;;;;;;5018654;28;20882;-85
2022/06/11 08:58:21;;;;;;;2.23;2.03;;;39.40;32.60;;;;;;5018399;28;20994;-87
2022/06/11 09:00:57;;;;;;;3.30;2.57;;;39.20;32.50;;;;;;5018091;28;20454;-86
2022/06/11 09:03:37;;;;;;;3.53;2.47;;;39.30;32.10;;;;;;5017147;28;20480;-86
2022/06/11 09:06:28;;;;;;;4.57;2.43;;;39.80;31.10;;;;;;5019084;28;20446;-87
2022/06/11 09:09:07;;;;;;;2.80;2.20;;;41.20;30.40;;;;;;5020369;28;20438;-86
2022/06/11 09:11:52;;;;;;;4.63;2.67;;;40.20;30.10;;;;;;5018439;28;20442;-86
2022/06/11 09:14:40;;;;;;;5.10;2.30;;;39.40;31.30;;;;;;5025588;28;20434;-86
2022/06/11 09:17:29;;;;;;;5.37;4.93;;;40.00;31.30;;;;;;5033783;28;20473;-85
2022/06/11 09:20:07;;;;;;;6.43;2.30;;;41.00;30.90;;;;;;5017967;28;20438;-86
2022/06/11 09:22:57;;;;;;;3.87;2.60;;;40.60;30.50;;;;;;5016366;28;20977;-86
2022/06/11 09:25:35;;;;;;;3.23;2.10;;;40.90;30.50;;;;;;5032444;28;20449;-86
2022/06/11 09:28:09;;;;;;;4.27;2.33;;;40.70;30.30;;;;;;5036567;28;20468;-86
2022/06/11 09:30:41;;;;;;;5.50;2.53;;;40.90;29.90;;;;;;5033167;28;20943;-86
2022/06/11 09:33:14;;;;;;;3.30;2.50;;;38.90;31.70;;;;;;5016514;28;20927;-86
2022/06/11 09:35:47;;;;;;;3.93;2.70;;;38.40;32.40;;;;;;5015886;28;20457;-86
2022/06/11 09:38:26;;;;;;;2.83;2.17;;;37.80;33.80;;;;;;5014916;28;20516;-86
2022/06/11 09:41:02;;;;;;;4.67;2.90;;;37.40;33.60;;;;;;5015014;28;20453;-86
2022/06/11 09:43:42;;;;;;;4.17;2.77;;;37.40;34.10;;;;;;5015728;28;20481;-86
2022/06/11 09:46:17;;;;;;;3.00;2.43;;;38.70;33.20;;;;;;5038705;28;20441;-86
2022/06/11 09:48:57;;;;;;;2.63;2.20;;;40.30;31.10;;;;;;5029472;28;20442;-86
2022/06/11 09:51:33;;;;;;;4.20;3.20;;;38.30;32.10;;;;;;5034731;28;20434;-87
2022/06/11 09:54:16;;;;;;;5.10;2.77;;;36.80;34.20;;;;;;5027434;28;20453;-87
2022/06/11 09:56:48;;;;;;;4.10;2.83;;;36.60;34.20;;;;;;5017319;28;20478;-86
2022/06/11 09:59:26;;;;;;;4.10;3.20;;;37.00;33.80;;;;;;5017161;28;20445;-86
2022/06/11 10:01:57;;;;;;;5.57;2.90;;;36.90;33.30;;;;;;5017234;28;20445;-87
2022/06/11 10:04:29;;;;;;;3.77;2.80;;;37.80;33.00;;;;;;5038464;28;20486;-86
2022/06/11 10:07:02;;;;;;;4.07;2.30;;;38.40;32.20;;;;;;5038003;28;20493;-86
2022/06/11 10:09:35;;;;;;;6.73;3.37;;;37.40;32.10;;;;;;5020111;28;20445;-86
2022/06/11 10:12:13;;;;;;;3.50;2.60;;;36.50;34.00;;;;;;5016847;28;20450;-86
2022/06/11 10:14:48;;;;;;;3.70;2.67;;;36.60;34.20;;;;;;5016888;28;20445;-86
2022/06/11 10:17:20;;;;;;;5.43;2.77;;;37.00;34.70;;;;;;5015426;28;20474;-86
2022/06/11 10:19:52;;;;;;;3.10;2.57;;;38.50;33.30;;;;;;5016149;28;20469;-87
2022/06/11 10:22:24;;;;;;;3.63;2.53;;;39.20;31.80;;;;;;5015964;28;20823;-86
2022/06/11 10:25:09;;;;;;;3.00;2.50;;;38.90;32.00;;;;;;5015652;28;21029;-87
2022/06/11 10:27:41;;;;;;;4.40;2.53;;;38.00;33.60;;;;;;5013639;28;20443;-87
2022/06/11 10:30:19;;;;;;;5.43;2.90;;;38.30;33.20;;;;;;5014265;28;20990;-87
2022/06/11 10:32:50;;;;;;;4.53;2.80;;;39.50;32.80;;;;;;5014355;28;20442;-85
2022/06/11 10:35:20;;;;;;;3.30;2.57;;;40.40;30.60;;;;;;5014511;28;20477;-87
2022/06/11 10:37:57;;;;;;;5.40;3.23;;;40.10;31.00;;;;;;5026422;28;20466;-86
2022/06/11 10:40:27;;;;;;;4.60;2.43;;;40.40;30.70;;;;;;5035210;28;20446;-86
2022/06/11 10:43:01;;;;;;;4.17;2.43;;;41.70;30.30;;;;;;5014375;28;20511;-87
2022/06/11 10:45:31;;;;;;;3.07;2.30;;;42.80;29.30;;;;;;5013901;28;20450;-87
2022/06/11 10:48:01;;;;;;;4.17;2.50;;;43.30;28.20;;;;;;5013885;28;20462;-86
2022/06/11 10:50:33;;;;;;;3.73;2.77;;;40.50;29.40;;;;;;5013728;28;20979;-86
2022/06/11 10:53:07;;;;;;;5.13;2.80;;;38.10;32.00;;;;;;5013921;28;20472;-86
2022/06/11 10:55:40;;;;;;;5.30;3.00;;;38.00;32.80;;;;;;5013960;28;20488;-86
2022/06/11 10:58:14;;;;;;;5.50;3.23;;;39.10;32.10;;;;;;5021455;28;20477;-86
2022/06/11 11:00:50;;;;;;;3.97;3.00;;;40.50;30.20;;;;;;5031414;23;20866;-82
2022/06/11 11:03:24;;;;;;;5.60;2.93;;;40.60;30.00;;;;;;5015624;28;20492;-81
2022/06/11 11:05:53;;;;;;;4.17;2.60;;;40.80;29.50;;;;;;5018488;28;20454;-82
2022/06/11 11:08:21;;;;;;;3.97;2.97;;;39.00;30.20;;;;;;5017175;28;20943;-81
2022/06/11 11:10:51;;;;;;;3.87;2.80;;;38.40;31.70;;;;;;5022121;28;20512;-83
2022/06/11 11:13:24;;;;;;;6.10;3.27;;;38.80;31.70;;;;;;5015564;28;20481;-80
2022/06/11 11:15:58;;;;;;;3.90;2.97;;;39.50;30.80;;;;;;5015486;28;20450;-83
2022/06/11 11:18:27;;;;;;;3.20;2.73;;;38.70;31.30;;;;;;5005327;28;20482;-81
2022/06/11 11:20:56;;;;;;;2.67;2.27;;;38.10;32.00;;;;;;4994997;28;20470;-83
2022/06/11 11:23:31;;;;;;;4.27;3.23;;;39.20;31.60;;;;;;4995839;28;20482;-83
2022/06/11 11:26:02;;;;;;;4.07;2.90;;;40.60;30.50;;;;;;4996355;28;20529;-83
2022/06/11 11:28:32;;;;;;;3.33;2.40;;;40.30;29.50;;;;;;4995472;28;20947;-83
2022/06/11 11:31:04;;;;;;;3.83;2.60;;;41.00;29.40;;;;;;4995930;28;20490;-84
2022/06/11 11:33:33;;;;;;;4.00;2.40;;;41.00;29.00;;;;;;4997933;28;20439;-83
2022/06/11 11:36:13;;;;;;;3.40;2.37;;;40.30;29.00;;;;;;5008310;28;20847;-82
2022/06/11 11:38:41;;;;;;;5.00;2.70;;;39.80;30.30;;;;;;5002934;28;20478;-83
2022/06/11 11:41:32;;;;;;;4.87;2.87;;;40.80;30.00;;;;;;5007006;28;20443;-82
2022/06/11 11:43:59;;;;;;;6.27;3.40;;;41.10;29.50;;;;;;5011023;28;20479;-80
2022/06/11 11:46:32;;;;;;;3.53;2.87;;;40.80;29.00;;;;;;5023031;28;20445;-80
2022/06/11 11:49:01;;;;;;;5.30;3.40;;;40.00;29.30;;;;;;5015169;28;20462;-80
2022/06/11 11:51:35;;;;;;;4.60;2.77;;;38.60;30.60;;;;;;5008217;28;20433;-81
2022/06/11 11:54:06;;;;;;;3.77;2.80;;;38.80;30.00;;;;;;5015142;28;20511;-80
2022/06/11 11:56:37;;;;;;;6.10;3.00;;;39.60;30.00;;;;;;5014621;28;20474;-81
2022/06/11 11:59:13;;;;;;;4.03;2.77;;;39.90;29.30;;;;;;5017640;28;20469;-79
2022/06/11 12:01:40;;;;;;;5.90;3.80;;;39.10;30.80;;;;;;5012043;28;20443;-82
2022/06/11 12:04:13;;;;;;;5.60;3.03;;;38.30;30.50;;;;;;5032943;28;20488;-80
2022/06/11 12:06:45;;;;;;;4.63;2.93;;;37.70;32.00;;;;;;5022625;28;20442;-79
2022/06/11 12:09:24;;;;;;;3.70;3.10;;;36.10;33.00;;;;;;5018624;28;20545;-78
2022/06/11 12:12:06;;;;;;;6.00;4.57;;;35.90;34.00;;;;;;5022312;28;20457;-79
2022/06/11 12:14:36;;;;;;;3.73;2.53;;;37.20;33.20;;;;;;5018817;28;20465;-80
2022/06/11 12:17:17;;;;;;;5.87;2.80;;;38.50;33.00;;;;;;5006315;28;20446;-79
2022/06/11 12:19:47;;;;;;;2.73;2.20;;;39.50;30.40;;;;;;5010511;28;20459;-80
2022/06/11 12:22:25;;;;;;;3.57;2.73;;;40.50;29.90;;;;;;5021188;28;20442;-79
2022/06/11 12:24:54;;;;;;;13.93;3.73;;;39.80;30.20;;;;;;5019750;28;20556;-80
2022/06/11 12:27:33;;;;;;;8.00;2.83;;;40.30;30.30;;;;;;5011065;28;20533;-81
2022/06/11 12:30:03;;;;;;;3.73;2.43;;;41.20;30.00;;;;;;5022634;28;20481;-82
2022/06/11 12:32:33;;;;;;;5.03;2.33;;;42.00;28.90;;;;;;5028352;28;20421;-82
2022/06/11 12:35:01;;;;;;;4.30;2.43;;;42.50;28.50;;;;;;5018171;28;20930;-82
2022/06/11 12:37:39;;;;;;;4.43;3.10;;;42.80;27.90;;;;;;5012508;28;20443;-77
2022/06/11 12:40:21;;;;;;;4.63;2.83;;;43.80;27.30;;;;;;5016047;28;20518;-79
2022/06/11 12:42:58;;;;;;;2.90;2.70;;;43.90;27.90;;;;;;5016571;28;20442;-80
2022/06/11 12:45:32;;;;;;;5.13;2.50;;;43.10;27.70;;;;;;5014082;28;20480;-81
2022/06/11 12:48:15;;;;;;;4.53;2.83;;;42.60;28.00;;;;;;5009126;28;20498;-82
2022/06/11 12:50:53;;;;;;;3.50;2.67;;;41.90;27.90;;;;;;5015992;28;20460;-81
2022/06/11 12:53:27;;;;;;;3.00;2.43;;;41.70;28.20;;;;;;5008721;28;20442;-82
2022/06/11 12:56:05;;;;;;;4.60;3.17;;;41.90;28.30;;;;;;5023122;28;20451;-81
2022/06/11 12:58:51;;;;;;;3.77;2.37;;;41.30;28.50;;;;;;5027626;28;20909;-81
2022/06/11 13:01:24;;;;;;;5.23;2.97;;;41.50;28.20;;;;;;5022285;28;20447;-83
2022/06/11 13:04:24;;;;;;;3.70;2.97;;;40.40;28.80;;;;;;5019687;28;20927;-81
2022/06/11 13:07:04;;;;;;;3.97;2.93;;;39.20;29.80;;;;;;5023475;28;20453;-82